Atlantic - Newfoundland: Past 24 Hour Conditions

 

Port aux Basques

01:30 PM NDT 17 April 2014
This table is a summary of hourly weather conditions for the past 24 hours.
Date / Time
(NDT)
Wind(knots) Conditions Visibility(km) Pressure(kPa) Air tempC) Relative humidity(%) Dew pointC) Wind Chill
17 April 2014
13:30 NW 21 gust 31 Sunny 15 104.3 -2 55 -10 -10
12:30 NW 18 gust 28 Sunny 15 104.3 -2 52 -10 -9
11:30 NW 21 gust 28 Sunny 15 104.2 -2 52 -11 -10
10:30 NW 21 gust 26 Sunny 15 104.1 -3 59 -10 -11
9:30 NW 16 gust 22 Sunny 15 104.0 -3 65 -9 -11
8:30 NW 20 gust 26 Sunny 15 103.9 -4 64 -10 -12
7:30 NW 21 gust 30 Sunny 15 103.7 -4 64 -10 -13
6:30 NW 18 gust 24 Clear 15 103.6 -4 65 -10 -12
5:30 NW 23 gust 32 Clear 15 103.5 -4 66 -9 -13
4:30 NW 22 gust 29 Clear 15 103.4 -3 67 -9 -12
3:30 NW 20 gust 29 Clear 15 103.2 -3 68 -8 -11
2:30 NW 19 gust 26 Clear 15 103.1 -3 71 -8 -11
1:30 NW 17 Clear 15 103.0 -3 73 -7 -10
0:30 NW 24 Clear 15 102.8 -3 73 -7 -11
16 April 2014
23:30 NW 23 gust 30 Clear 15 102.6 -2 73 -6 -11
22:30 WNW 20 Clear 15 102.5 -2 80 -5 -10
21:30 NW 22 gust 28 Mostly Cloudy 15 102.3 -2 81 -5 -10
20:30 NW 20 gust 28 Mostly Cloudy 15 102.1 -1 85 -4 -9
19:30 WNW 24 gust 32 Light Rain 15 102.0 -1 90 -3 -9
18:30 WNW 28 gust 37 Light Snow 10 101.7 -1 94 -2 -9
17:30 W 24 Light Rain 6 101.6 0 99 0 -8
16:30 W 21 Light Precipitation 2 101.4 1 99 0 *
15:30 SW 13 gust 19 Light Drizzle 2 101.2 4 100 4 *
14:30 S 24 Cloudy 6 101.1 5 100 5 *
13:30 SSE 20 gust 27 Cloudy 6 101.0 5 100 5 *
 
Map of Atlantic - Newfoundland marine weather areas Southwestern Grand Banks - 44138 Banquereau - 44139 Tail of the Bank - 44140 Nickerson Bank - 44251 Northeast Burgeo Bank - 44255 Blanc-Sablon Airport Cap Whittle Chevery Natashquan Airport Heath Point Miscou Island Grand Étang Ingonish Beach North Mountain St.Paul Island J.A. Douglas McCurdy Sydney Airport Charlottetown Airport East Point North Cape Argentia Bonavista Burgeo Cape Race Corner Brook Daniel's Harbour Englee Ferolle Point La Scie Port aux Basques Rocky Harbour Sagona Island St. Anthony Airport St. John's Int'l Airport St. Lawrence Stephenville Airport Twillingate Winterland Wreckhouse Cartwright Airport Mary's Harbour Grates Cove Pool's Island Marticot Island Long Pond Îles de la Madeleine Airport
Legend: buoyBuoy land stationLand Station